Time;durP1;ratioP1;P1;durP2;ratioP2;P2;SDS_P1;SDS_P2;PMS_P1;PMS_P2;Temp;Humidity;BMP_temperature;BMP_pressure;BME280_temperature;BME280_humidity;BME280_pressure;Samples;Min_cycle;Max_cycle;Signal;HPM_P1;HPM_P2
2022/09/14 00:01:30;;;;;;;5.10;2.77;;;;;;;;;;5034232;28;20447;-63
2022/09/14 00:04:00;;;;;;;7.13;1.70;;;;;;;;;;5033740;28;20438;-63
2022/09/14 00:06:27;;;;;;;7.40;2.10;;;;;;;;;;5034077;28;20456;-63
2022/09/14 00:08:55;;;;;;;4.57;3.13;;;;;;;;;;5033517;28;20482;-63
2022/09/14 00:11:23;;;;;;;7.73;2.10;;;;;;;;;;5034361;28;20481;-63
2022/09/14 00:13:51;;;;;;;2.50;1.97;;;;;;;;;;5033802;28;20467;-63
2022/09/14 00:16:19;;;;;;;5.83;1.70;;;;;;;;;;5033928;28;20443;-63
2022/09/14 00:18:50;;;;;;;5.27;2.77;;;;;;;;;;5033656;28;20536;-63
2022/09/14 00:21:19;;;;;;;7.90;3.30;;;;;;;;;;5033918;28;20438;-63
2022/09/14 00:23:46;;;;;;;7.67;2.30;;;;;;;;;;5033748;28;20441;-63
2022/09/14 00:26:14;;;;;;;9.43;2.43;;;;;;;;;;5033675;28;20459;-63
2022/09/14 00:28:42;;;;;;;9.33;2.10;;;;;;;;;;5033254;28;20491;-63
2022/09/14 00:31:09;;;;;;;5.37;2.20;;;;;;;;;;5033246;28;20483;-63
2022/09/14 00:33:37;;;;;;;9.23;2.23;;;;;;;;;;5033745;28;20558;-63
2022/09/14 00:36:05;;;;;;;5.23;1.87;;;;;;;;;;5033631;28;20446;-63
2022/09/14 00:38:34;;;;;;;4.33;1.90;;;;;;;;;;5033066;28;20449;-63
2022/09/14 00:41:02;;;;;;;6.83;2.20;;;;;;;;;;5033603;28;20452;-63
2022/09/14 00:43:29;;;;;;;7.57;2.30;;;;;;;;;;5033505;28;20443;-63
2022/09/14 00:45:56;;;;;;;5.70;2.20;;;;;;;;;;5033499;28;20444;-63
2022/09/14 00:48:25;;;;;;;5.23;2.60;;;;;;;;;;5033377;28;20445;-63
2022/09/14 00:50:53;;;;;;;2.80;1.40;;;;;;;;;;5033247;28;20484;-63
2022/09/14 00:53:20;;;;;;;10.93;2.10;;;;;;;;;;5033633;28;20442;-63
2022/09/14 00:55:52;;;;;;;4.53;2.23;;;;;;;;;;5033102;28;20446;-63
2022/09/14 00:58:19;;;;;;;4.03;2.00;;;;;;;;;;5033494;28;20477;-63
2022/09/14 01:00:46;;;;;;;2.80;2.37;;;;;;;;;;5032997;28;20448;-63
2022/09/14 01:03:14;;;;;;;3.97;1.80;;;;;;;;;;5033309;28;20446;-63
2022/09/14 01:05:51;;;;;;;10.27;2.23;;;;;;;;;;5033292;28;20448;-63
2022/09/14 01:08:26;;;;;;;7.50;1.90;;;;;;;;;;5033369;28;20503;-63
2022/09/14 01:11:02;;;;;;;6.10;2.10;;;;;;;;;;5033139;28;20470;-63
2022/09/14 01:13:41;;;;;;;6.00;2.00;;;;;;;;;;5033450;28;20434;-63
2022/09/14 01:16:14;;;;;;;10.20;2.10;;;;;;;;;;5033286;28;20449;-63
2022/09/14 01:18:45;;;;;;;8.17;2.20;;;;;;;;;;5033367;28;20525;-63
2022/09/14 01:21:14;;;;;;;14.13;2.70;;;;;;;;;;5033549;28;20446;-63
2022/09/14 01:23:44;;;;;;;2.47;1.60;;;;;;;;;;5033229;28;20858;-63
2022/09/14 01:26:29;;;;;;;4.63;1.83;;;;;;;;;;5032831;28;20909;-63
2022/09/14 01:28:59;;;;;;;5.63;2.40;;;;;;;;;;5033154;28;20432;-63
2022/09/14 01:31:29;;;;;;;4.27;2.30;;;;;;;;;;5035553;28;20469;-63
2022/09/14 01:34:02;;;;;;;8.50;2.03;;;;;;;;;;5037215;28;20482;-64
2022/09/14 01:36:29;;;;;;;6.13;1.90;;;;;;;;;;5037123;28;20425;-63
2022/09/14 01:38:57;;;;;;;5.90;1.97;;;;;;;;;;5036851;28;20443;-63
2022/09/14 01:41:28;;;;;;;8.03;2.20;;;;;;;;;;5036448;28;20488;-63
2022/09/14 01:43:57;;;;;;;6.77;2.50;;;;;;;;;;5037258;28;20799;-63
2022/09/14 01:46:28;;;;;;;6.63;2.07;;;;;;;;;;5036637;28;20442;-63
2022/09/14 01:49:00;;;;;;;4.63;1.90;;;;;;;;;;5036782;28;20427;-63
2022/09/14 01:51:31;;;;;;;6.83;2.20;;;;;;;;;;5037242;28;20435;-63
2022/09/14 01:54:01;;;;;;;13.93;2.60;;;;;;;;;;5036346;28;20429;-63
2022/09/14 01:56:31;;;;;;;6.00;2.50;;;;;;;;;;5036428;28;20451;-63
2022/09/14 01:59:02;;;;;;;13.80;2.50;;;;;;;;;;5036530;28;20537;-63
2022/09/14 02:01:33;;;;;;;5.40;2.13;;;;;;;;;;5036372;28;20550;-63
2022/09/14 02:04:02;;;;;;;9.73;2.40;;;;;;;;;;5036137;28;21011;-63
2022/09/14 02:06:34;;;;;;;7.80;2.20;;;;;;;;;;5036011;28;20450;-63
2022/09/14 02:09:02;;;;;;;9.70;2.40;;;;;;;;;;5036361;28;20445;-63
2022/09/14 02:11:29;;;;;;;3.67;2.50;;;;;;;;;;5036159;28;20447;-63
2022/09/14 02:13:56;;;;;;;7.13;2.10;;;;;;;;;;5035900;28;20450;-63
2022/09/14 02:16:24;;;;;;;5.87;1.93;;;;;;;;;;5035742;28;20452;-63
2022/09/14 02:18:53;;;;;;;8.00;2.23;;;;;;;;;;5036303;28;20489;-63
2022/09/14 02:21:21;;;;;;;5.20;2.37;;;;;;;;;;5036092;28;20452;-63
2022/09/14 02:23:49;;;;;;;3.80;2.40;;;;;;;;;;5036629;28;20455;-63
2022/09/14 02:26:17;;;;;;;6.23;2.23;;;;;;;;;;5035873;28;20924;-63
2022/09/14 02:28:44;;;;;;;8.97;2.30;;;;;;;;;;5036086;28;20536;-63
2022/09/14 02:31:17;;;;;;;5.87;2.90;;;;;;;;;;5035396;28;20497;-63
2022/09/14 02:33:46;;;;;;;7.10;2.27;;;;;;;;;;5036150;28;20440;-63
2022/09/14 02:36:17;;;;;;;9.77;2.87;;;;;;;;;;5035783;28;20788;-63
2022/09/14 02:38:47;;;;;;;7.80;3.00;;;;;;;;;;5036062;28;20783;-63
2022/09/14 02:41:27;;;;;;;6.23;1.90;;;;;;;;;;5035044;28;20449;-63
2022/09/14 02:43:58;;;;;;;8.73;2.40;;;;;;;;;;5035232;28;20436;-63
2022/09/14 02:46:29;;;;;;;7.50;2.30;;;;;;;;;;5035574;28;20429;-63
2022/09/14 02:49:03;;;;;;;5.40;2.57;;;;;;;;;;5036469;28;20438;-63
2022/09/14 02:51:35;;;;;;;5.43;2.50;;;;;;;;;;5035510;28;20470;-63
2022/09/14 02:54:04;;;;;;;5.07;2.03;;;;;;;;;;5035431;28;20445;-63
2022/09/14 02:56:32;;;;;;;7.20;2.70;;;;;;;;;;5035620;28;20442;-63
2022/09/14 02:58:59;;;;;;;3.87;1.67;;;;;;;;;;5035110;28;20456;-63
2022/09/14 03:01:26;;;;;;;15.73;2.00;;;;;;;;;;5034990;28;20461;-63
2022/09/14 03:03:54;;;;;;;10.47;3.03;;;;;;;;;;5034950;28;20953;-63
2022/09/14 03:06:21;;;;;;;8.77;2.20;;;;;;;;;;5035218;28;20448;-63
2022/09/14 03:08:50;;;;;;;10.40;2.40;;;;;;;;;;5035146;28;20492;-63
2022/09/14 03:11:17;;;;;;;8.60;2.70;;;;;;;;;;5035061;28;20488;-64
2022/09/14 03:13:44;;;;;;;8.03;2.43;;;;;;;;;;5034837;28;20447;-63
2022/09/14 03:16:13;;;;;;;9.47;2.93;;;;;;;;;;5035508;28;20453;-64
2022/09/14 03:18:40;;;;;;;5.20;2.27;;;;;;;;;;5034773;28;20449;-63
2022/09/14 03:21:09;;;;;;;10.07;2.47;;;;;;;;;;5034934;28;20445;-64
2022/09/14 03:23:37;;;;;;;10.87;2.90;;;;;;;;;;5035004;28;20446;-63
2022/09/14 03:26:08;;;;;;;6.23;3.00;;;;;;;;;;5035175;28;20453;-64
2022/09/14 03:28:35;;;;;;;4.50;2.50;;;;;;;;;;5035232;28;20433;-63
2022/09/14 03:31:03;;;;;;;8.50;2.40;;;;;;;;;;5034689;28;20492;-64
2022/09/14 03:33:30;;;;;;;4.67;2.70;;;;;;;;;;5034719;28;20455;-64
2022/09/14 03:35:57;;;;;;;8.57;2.60;;;;;;;;;;5034625;28;20455;-64
2022/09/14 03:38:28;;;;;;;11.10;3.00;;;;;;;;;;5034310;28;20455;-65
2022/09/14 03:40:56;;;;;;;6.87;2.53;;;;;;;;;;5034278;28;20524;-64
2022/09/14 03:43:25;;;;;;;7.10;3.07;;;;;;;;;;5034265;28;20450;-64
2022/09/14 03:45:53;;;;;;;5.17;2.77;;;;;;;;;;5034361;28;21027;-64
2022/09/14 03:48:20;;;;;;;5.87;2.67;;;;;;;;;;5034084;28;20445;-64
2022/09/14 03:50:47;;;;;;;7.77;2.80;;;;;;;;;;5034239;28;20565;-64
2022/09/14 03:53:14;;;;;;;4.10;2.60;;;;;;;;;;5034094;28;20451;-63
2022/09/14 03:55:42;;;;;;;11.40;2.80;;;;;;;;;;5034749;28;20448;-63
2022/09/14 03:58:09;;;;;;;8.73;2.27;;;;;;;;;;5033909;28;20932;-64
2022/09/14 04:00:37;;;;;;;3.80;2.30;;;;;;;;;;5034410;28;20458;-64
2022/09/14 04:03:04;;;;;;;10.93;3.13;;;;;;;;;;5034110;28;20448;-64
2022/09/14 04:05:32;;;;;;;5.50;2.30;;;;;;;;;;5034195;28;20436;-63
2022/09/14 04:07:59;;;;;;;3.77;2.30;;;;;;;;;;5033737;28;20448;-63
2022/09/14 04:10:26;;;;;;;5.53;2.10;;;;;;;;;;5034237;28;20486;-63
2022/09/14 04:12:53;;;;;;;6.30;2.50;;;;;;;;;;5033919;28;20445;-63
2022/09/14 04:15:21;;;;;;;13.83;2.80;;;;;;;;;;5033954;28;20448;-63
2022/09/14 04:17:50;;;;;;;7.47;2.50;;;;;;;;;;5033906;28;20445;-63
2022/09/14 04:20:18;;;;;;;10.77;2.70;;;;;;;;;;5033900;28;20452;-63
2022/09/14 04:22:46;;;;;;;5.63;2.30;;;;;;;;;;5033422;28;20451;-63
2022/09/14 04:25:13;;;;;;;7.60;3.13;;;;;;;;;;5034238;28;20518;-64
2022/09/14 04:27:40;;;;;;;5.00;1.93;;;;;;;;;;5032104;28;20464;-64
2022/09/14 04:30:08;;;;;;;8.87;2.83;;;;;;;;;;5033049;28;20479;-64
2022/09/14 04:32:35;;;;;;;3.50;2.00;;;;;;;;;;5033294;28;20482;-64
2022/09/14 04:35:04;;;;;;;6.20;2.20;;;;;;;;;;5033003;28;20451;-64
2022/09/14 04:37:31;;;;;;;7.03;2.40;;;;;;;;;;5032837;28;20932;-64
2022/09/14 04:39:58;;;;;;;7.13;2.57;;;;;;;;;;5033509;28;20836;-64
2022/09/14 04:42:26;;;;;;;11.13;2.77;;;;;;;;;;5033063;28;20447;-64
2022/09/14 04:44:53;;;;;;;9.73;2.87;;;;;;;;;;5033287;28;20451;-64
2022/09/14 04:47:20;;;;;;;6.13;2.67;;;;;;;;;;5033429;28;20451;-64
2022/09/14 04:49:47;;;;;;;7.20;2.67;;;;;;;;;;5033796;28;20445;-64
2022/09/14 04:52:16;;;;;;;4.67;2.13;;;;;;;;;;5033094;28;20480;-64
2022/09/14 04:54:43;;;;;;;7.40;2.83;;;;;;;;;;5033231;28;20795;-64
2022/09/14 04:57:10;;;;;;;6.60;2.97;;;;;;;;;;5033147;28;20791;-64
2022/09/14 04:59:37;;;;;;;7.90;2.60;;;;;;;;;;5033441;28;20441;-64
2022/09/14 05:02:05;;;;;;;4.43;2.57;;;;;;;;;;5032761;28;20451;-64
2022/09/14 05:04:32;;;;;;;8.13;2.90;;;;;;;;;;5032932;28;20468;-64
2022/09/14 05:06:59;;;;;;;3.40;2.50;;;;;;;;;;5036896;28;20987;-64
2022/09/14 05:09:28;;;;;;;3.50;2.10;;;;;;;;;;5037322;28;20794;-63
2022/09/14 05:11:55;;;;;;;5.57;2.87;;;;;;;;;;5036905;28;20478;-63
2022/09/14 05:14:22;;;;;;;4.63;2.40;;;;;;;;;;5036825;28;20457;-63
2022/09/14 05:16:49;;;;;;;6.60;3.10;;;;;;;;;;5037331;28;20441;-64
2022/09/14 05:19:17;;;;;;;6.03;2.40;;;;;;;;;;5037139;28;20439;-63
2022/09/14 05:21:45;;;;;;;7.53;2.17;;;;;;;;;;5037049;28;20455;-63
2022/09/14 05:24:13;;;;;;;10.10;3.30;;;;;;;;;;5036722;28;20793;-64
2022/09/14 05:26:42;;;;;;;3.50;2.27;;;;;;;;;;5036834;28;20822;-63
2022/09/14 05:29:12;;;;;;;7.33;2.70;;;;;;;;;;5036787;28;20457;-63
2022/09/14 05:31:39;;;;;;;6.27;2.50;;;;;;;;;;5036794;28;20496;-64
2022/09/14 05:34:06;;;;;;;5.70;2.63;;;;;;;;;;5036833;28;20438;-63
2022/09/14 05:36:34;;;;;;;5.30;2.67;;;;;;;;;;5036711;28;20446;-63
2022/09/14 05:39:01;;;;;;;20.20;2.93;;;;;;;;;;5036758;28;20443;-63
2022/09/14 05:41:28;;;;;;;4.00;2.40;;;;;;;;;;5036910;28;20445;-63
2022/09/14 05:43:57;;;;;;;4.73;2.23;;;;;;;;;;5036397;28;20454;-63
2022/09/14 05:46:24;;;;;;;8.10;3.60;;;;;;;;;;5036653;28;20494;-63
2022/09/14 05:48:51;;;;;;;10.17;2.60;;;;;;;;;;5036130;28;20443;-63
2022/09/14 05:51:19;;;;;;;4.97;2.50;;;;;;;;;;5036106;28;20479;-63
2022/09/14 05:53:49;;;;;;;6.27;2.30;;;;;;;;;;5036678;28;20434;-64
2022/09/14 05:56:16;;;;;;;6.97;2.70;;;;;;;;;;5036586;28;20448;-64
2022/09/14 05:58:43;;;;;;;3.87;2.30;;;;;;;;;;5035934;28;20460;-63
2022/09/14 06:01:15;;;;;;;6.03;2.50;;;;;;;;;;5036380;28;20456;-64
2022/09/14 06:03:42;;;;;;;4.10;2.37;;;;;;;;;;5035668;28;20435;-64
2022/09/14 06:06:10;;;;;;;5.50;2.43;;;;;;;;;;5035972;28;20452;-63
2022/09/14 06:08:37;;;;;;;4.63;2.43;;;;;;;;;;5035803;28;20445;-64
2022/09/14 06:11:05;;;;;;;5.47;2.90;;;;;;;;;;5035834;28;20575;-63
2022/09/14 06:13:33;;;;;;;6.03;2.33;;;;;;;;;;5036386;28;20441;-64
2022/09/14 06:16:04;;;;;;;8.40;2.90;;;;;;;;;;5035770;28;20440;-63
2022/09/14 06:18:34;;;;;;;18.10;3.30;;;;;;;;;;5035888;28;20450;-64
2022/09/14 06:21:01;;;;;;;8.73;3.13;;;;;;;;;;5036300;28;20447;-63
2022/09/14 06:23:29;;;;;;;7.97;3.13;;;;;;;;;;5035802;28;20481;-63
2022/09/14 06:25:57;;;;;;;8.13;2.77;;;;;;;;;;5035811;28;20448;-64
2022/09/14 06:28:25;;;;;;;7.43;3.00;;;;;;;;;;5035265;28;20444;-63
2022/09/14 06:30:52;;;;;;;4.40;2.67;;;;;;;;;;5035551;28;20517;-64
2022/09/14 06:33:19;;;;;;;9.70;3.73;;;;;;;;;;5035832;28;20441;-64
2022/09/14 06:35:56;;;;;;;5.00;2.40;;;;;;;;;;5035773;28;20886;-62
2022/09/14 06:38:23;;;;;;;4.83;2.80;;;;;;;;;;5035319;28;20430;-64
2022/09/14 06:40:55;;;;;;;9.03;3.00;;;;;;;;;;5035705;28;20447;-67
2022/09/14 06:43:23;;;;;;;5.63;2.73;;;;;;;;;;5035170;28;20448;-65
2022/09/14 06:45:57;;;;;;;7.80;3.30;;;;;;;;;;5035549;28;20449;-65
2022/09/14 06:48:24;;;;;;;8.00;3.10;;;;;;;;;;5035414;28;20805;-65
2022/09/14 06:50:51;;;;;;;8.23;2.83;;;;;;;;;;5035604;28;20484;-65
2022/09/14 06:53:20;;;;;;;5.17;2.87;;;;;;;;;;5035094;28;20484;-64
2022/09/14 06:55:47;;;;;;;3.40;2.63;;;;;;;;;;5035440;28;20453;-63
2022/09/14 06:58:15;;;;;;;8.43;2.57;;;;;;;;;;5035237;28;20779;-64
2022/09/14 07:00:42;;;;;;;2.97;2.33;;;;;;;;;;5035159;28;20466;-63
2022/09/14 07:03:09;;;;;;;5.57;2.43;;;;;;;;;;5035131;28;20449;-63
2022/09/14 07:05:36;;;;;;;8.60;2.60;;;;;;;;;;5034612;28;20449;-63
2022/09/14 07:08:04;;;;;;;7.47;2.53;;;;;;;;;;5035115;28;20456;-63
2022/09/14 07:10:32;;;;;;;5.40;2.23;;;;;;;;;;5034958;28;20445;-63
2022/09/14 07:13:00;;;;;;;6.23;2.50;;;;;;;;;;5034995;28;20480;-63
2022/09/14 07:15:27;;;;;;;3.80;2.80;;;;;;;;;;5034578;28;20806;-63
2022/09/14 07:17:54;;;;;;;7.20;2.80;;;;;;;;;;5034694;28;20445;-64
2022/09/14 07:20:21;;;;;;;4.67;2.70;;;;;;;;;;5034980;28;20537;-63
2022/09/14 07:22:49;;;;;;;5.00;3.30;;;;;;;;;;5034888;28;20442;-63
2022/09/14 07:25:16;;;;;;;9.87;3.10;;;;;;;;;;5034424;28;20537;-63
2022/09/14 07:27:44;;;;;;;9.10;5.40;;;;;;;;;;5034539;28;20440;-63
2022/09/14 07:30:12;;;;;;;11.33;3.70;;;;;;;;;;5034173;28;20935;-64
2022/09/14 07:32:39;;;;;;;6.20;2.87;;;;;;;;;;5034621;28;20486;-63
2022/09/14 07:35:07;;;;;;;8.60;3.37;;;;;;;;;;5034298;28;20939;-63
2022/09/14 07:37:34;;;;;;;6.13;3.13;;;;;;;;;;5034570;28;20456;-63
2022/09/14 07:40:01;;;;;;;4.20;3.00;;;;;;;;;;5034489;28;20459;-63
2022/09/14 07:42:30;;;;;;;6.60;4.07;;;;;;;;;;5034044;28;20457;-63
2022/09/14 07:44:58;;;;;;;10.23;3.80;;;;;;;;;;5034171;28;20449;-63
2022/09/14 07:47:26;;;;;;;5.97;2.80;;;;;;;;;;5034443;28;20445;-64
2022/09/14 07:49:53;;;;;;;6.93;3.20;;;;;;;;;;5034301;28;20444;-63
2022/09/14 07:52:20;;;;;;;5.00;2.47;;;;;;;;;;5033865;28;20574;-63
2022/09/14 07:54:47;;;;;;;10.83;2.93;;;;;;;;;;5034122;28;20953;-63
2022/09/14 07:57:14;;;;;;;7.07;3.20;;;;;;;;;;5034057;28;20529;-63
2022/09/14 07:59:42;;;;;;;7.00;3.43;;;;;;;;;;5033807;28;20455;-63
2022/09/14 08:02:11;;;;;;;12.07;3.67;;;;;;;;;;5033976;28;20465;-66
2022/09/14 08:04:39;;;;;;;9.30;3.07;;;;;;;;;;5032443;28;20445;-64
2022/09/14 08:07:06;;;;;;;11.47;3.83;;;;;;;;;;5032233;28;20456;-64
2022/09/14 08:09:34;;;;;;;7.70;4.57;;;;;;;;;;5033732;28;20442;-65
2022/09/14 08:12:02;;;;;;;7.80;3.63;;;;;;;;;;5033673;28;20476;-63
2022/09/14 08:14:29;;;;;;;5.90;4.43;;;;;;;;;;5034480;28;20582;-64
2022/09/14 08:16:56;;;;;;;7.30;4.00;;;;;;;;;;5033900;28;20448;-63
2022/09/14 08:19:25;;;;;;;4.27;3.70;;;;;;;;;;5033929;28;20450;-63
2022/09/14 08:21:52;;;;;;;7.20;4.13;;;;;;;;;;5033774;28;20810;-63
2022/09/14 08:24:20;;;;;;;8.37;4.20;;;;;;;;;;5033497;28;20452;-63
2022/09/14 08:26:48;;;;;;;9.87;4.17;;;;;;;;;;5033636;28;20455;-63
2022/09/14 08:29:16;;;;;;;8.30;3.63;;;;;;;;;;5032088;28;20453;-63
2022/09/14 08:31:44;;;;;;;8.47;4.30;;;;;;;;;;5033193;28;20492;-63
2022/09/14 08:34:11;;;;;;;6.27;4.50;;;;;;;;;;5033505;28;20444;-64
2022/09/14 08:36:41;;;;;;;6.77;3.70;;;;;;;;;;5033190;28;20441;-64
2022/09/14 08:39:09;;;;;;;9.57;5.00;;;;;;;;;;5033480;28;20440;-64
2022/09/14 08:41:39;;;;;;;5.40;3.70;;;;;;;;;;5033437;28;20536;-63
2022/09/14 08:44:13;;;;;;;6.73;4.03;;;;;;;;;;5033291;28;20807;-64
2022/09/14 08:46:43;;;;;;;7.20;4.30;;;;;;;;;;5033405;28;20448;-63
2022/09/14 08:49:13;;;;;;;7.57;3.77;;;;;;;;;;5033268;28;20460;-64
2022/09/14 08:51:42;;;;;;;6.00;3.30;;;;;;;;;;5033163;28;20478;-64
2022/09/14 08:54:10;;;;;;;14.73;3.50;;;;;;;;;;5032898;28;20963;-64
2022/09/14 08:56:40;;;;;;;7.27;3.60;;;;;;;;;;5033354;28;20440;-63
2022/09/14 08:59:25;;;;;;;7.80;3.10;;;;;;;;;;5033385;28;20798;-63
2022/09/14 09:01:58;;;;;;;5.97;3.40;;;;;;;;;;5033319;28;20466;-64
2022/09/14 09:04:31;;;;;;;6.97;2.80;;;;;;;;;;5032939;28;20451;-65
2022/09/14 09:07:04;;;;;;;7.60;2.90;;;;;;;;;;5033123;28;20446;-63
2022/09/14 09:09:39;;;;;;;10.47;2.80;;;;;;;;;;5033083;28;20559;-63
2022/09/14 09:12:07;;;;;;;7.60;3.70;;;;;;;;;;5032682;28;20562;-63
2022/09/14 09:14:35;;;;;;;6.30;3.17;;;;;;;;;;5033151;28;20447;-63
2022/09/14 09:17:05;;;;;;;6.37;2.77;;;;;;;;;;5033060;28;20934;-64
2022/09/14 09:19:34;;;;;;;8.27;2.47;;;;;;;;;;5032827;28;20432;-63
2022/09/14 09:22:04;;;;;;;5.47;3.43;;;;;;;;;;5032555;28;20450;-64
2022/09/14 09:24:33;;;;;;;9.87;2.90;;;;;;;;;;5032825;28;20978;-64
2022/09/14 09:27:01;;;;;;;8.47;4.47;;;;;;;;;;5032981;28;20439;-62
2022/09/14 09:29:28;;;;;;;4.70;2.70;;;;;;;;;;5032604;28;20456;-63
2022/09/14 09:31:57;;;;;;;10.23;3.93;;;;;;;;;;5032564;28;20491;-63
2022/09/14 09:34:27;;;;;;;10.27;2.50;;;;;;;;;;5033203;28;20603;-63
2022/09/14 09:36:55;;;;;;;3.30;2.67;;;;;;;;;;5032494;28;20451;-63
2022/09/14 09:39:24;;;;;;;8.73;3.07;;;;;;;;;;5032736;28;20438;-64
2022/09/14 09:41:55;;;;;;;4.10;2.20;;;;;;;;;;5032440;28;20457;-64
2022/09/14 09:44:23;;;;;;;4.70;2.30;;;;;;;;;;5032500;28;20444;-64
2022/09/14 09:46:51;;;;;;;5.70;2.80;;;;;;;;;;5032826;28;20446;-63
2022/09/14 09:49:20;;;;;;;4.83;2.60;;;;;;;;;;5032819;28;20477;-63
2022/09/14 09:51:48;;;;;;;5.47;2.80;;;;;;;;;;5033889;28;20944;-63
2022/09/14 09:54:28;;;;;;;4.43;2.60;;;;;;;;;;5036412;28;20451;-64
2022/09/14 09:56:57;;;;;;;5.20;2.30;;;;;;;;;;5036939;28;20845;-63
2022/09/14 09:59:29;;;;;;;2.33;2.13;;;;;;;;;;5036542;28;20451;-63
2022/09/14 10:01:57;;;;;;;7.53;2.50;;;;;;;;;;5036634;28;20461;-64
2022/09/14 10:04:27;;;;;;;4.13;2.57;;;;;;;;;;5036345;28;20445;-64
2022/09/14 10:06:56;;;;;;;13.20;3.00;;;;;;;;;;5036408;28;20445;-63
2022/09/14 10:09:25;;;;;;;4.07;2.03;;;;;;;;;;5036298;28;20448;-63
2022/09/14 10:11:59;;;;;;;5.60;2.20;;;;;;;;;;5035599;28;20449;-63
2022/09/14 10:14:27;;;;;;;3.33;2.30;;;;;;;;;;5035904;28;20884;-63
2022/09/14 10:17:05;;;;;;;3.10;2.10;;;;;;;;;;5036060;28;20453;-63
2022/09/14 10:19:33;;;;;;;5.10;2.30;;;;;;;;;;5036487;28;20900;-63
2022/09/14 10:22:16;;;;;;;5.80;2.20;;;;;;;;;;5035464;28;20538;-65
2022/09/14 10:24:52;;;;;;;6.23;3.07;;;;;;;;;;5036546;28;20845;-63
2022/09/14 10:27:38;;;;;;;4.80;2.47;;;;;;;;;;5036113;28;20436;-63
2022/09/14 10:30:08;;;;;;;7.40;3.37;;;;;;;;;;5035038;28;20518;-63
2022/09/14 10:32:36;;;;;;;3.70;2.20;;;;;;;;;;5035999;28;20518;-63
2022/09/14 10:35:09;;;;;;;6.30;2.40;;;;;;;;;;5035614;28;20876;-63
2022/09/14 10:37:38;;;;;;;8.27;3.27;;;;;;;;;;5035949;28;20445;-63
2022/09/14 10:40:15;;;;;;;9.77;2.80;;;;;;;;;;5035318;28;20956;-63
2022/09/14 10:42:46;;;;;;;8.57;3.63;;;;;;;;;;5035542;28;20435;-63
2022/09/14 10:45:18;;;;;;;13.63;3.43;;;;;;;;;;5035876;28;20433;-63
2022/09/14 10:48:06;;;;;;;6.20;3.07;;;;;;;;;;5035845;28;20449;-63
2022/09/14 10:50:39;;;;;;;8.40;3.10;;;;;;;;;;5030778;28;20485;-64
2022/09/14 10:53:10;;;;;;;10.90;4.80;;;;;;;;;;5034973;28;20476;-63
2022/09/14 10:55:42;;;;;;;8.50;3.53;;;;;;;;;;5035151;28;20440;-63
2022/09/14 10:58:23;;;;;;;5.93;2.80;;;;;;;;;;5035622;28;20428;-63
2022/09/14 11:00:57;;;;;;;3.57;2.93;;;;;;;;;;5035819;28;20824;-63
2022/09/14 11:03:32;;;;;;;6.40;2.93;;;;;;;;;;5033965;28;20945;-63
2022/09/14 11:06:06;;;;;;;6.87;2.40;;;;;;;;;;5035592;28;20522;-63
2022/09/14 11:08:37;;;;;;;5.53;2.53;;;;;;;;;;5035355;28;20430;-63
2022/09/14 11:11:15;;;;;;;3.30;2.50;;;;;;;;;;5034976;28;20433;-64
2022/09/14 11:13:48;;;;;;;3.90;2.63;;;;;;;;;;5034855;28;20475;-63
2022/09/14 11:16:24;;;;;;;6.13;2.90;;;;;;;;;;5035113;28;20435;-63
2022/09/14 11:18:55;;;;;;;8.13;2.70;;;;;;;;;;5035029;28;20439;-63
2022/09/14 11:21:26;;;;;;;5.27;2.70;;;;;;;;;;5035525;28;20428;-63
2022/09/14 11:23:56;;;;;;;5.83;2.80;;;;;;;;;;5034971;28;20441;-63
2022/09/14 11:26:30;;;;;;;6.00;2.83;;;;;;;;;;5034929;28;20477;-63
2022/09/14 11:29:03;;;;;;;3.30;2.10;;;;;;;;;;5034916;28;20512;-63
2022/09/14 11:31:33;;;;;;;5.37;2.27;;;;;;;;;;5034365;28;20478;-63
2022/09/14 11:34:06;;;;;;;6.43;2.27;;;;;;;;;;5034409;28;20488;-63
2022/09/14 11:36:36;;;;;;;7.47;2.67;;;;;;;;;;5034551;28;20496;-63
2022/09/14 11:39:05;;;;;;;4.33;3.00;;;;;;;;;;5034895;28;20454;-63
2022/09/14 11:41:34;;;;;;;8.60;3.40;;;;;;;;;;5034636;28;20449;-63
2022/09/14 11:44:02;;;;;;;7.80;3.30;;;;;;;;;;5034151;28;20496;-63
2022/09/14 11:46:34;;;;;;;14.87;3.77;;;;;;;;;;5034763;28;20442;-64
2022/09/14 11:49:06;;;;;;;6.87;3.67;;;;;;;;;;5034537;28;20847;-64
2022/09/14 11:51:37;;;;;;;6.67;3.63;;;;;;;;;;5034111;28;20933;-63
2022/09/14 11:54:10;;;;;;;10.57;3.80;;;;;;;;;;5034257;28;20465;-63
2022/09/14 11:56:38;;;;;;;14.23;5.40;;;;;;;;;;5034857;28;20438;-63
2022/09/14 11:59:06;;;;;;;7.37;3.63;;;;;;;;;;5034049;28;20985;-63
2022/09/14 12:01:36;;;;;;;5.10;4.10;;;;;;;;;;5034319;28;20500;-64
2022/09/14 12:04:12;;;;;;;4.50;4.10;;;;;;;;;;5034053;28;20477;-64
2022/09/14 12:06:57;;;;;;;6.27;3.53;;;;;;;;;;5033910;28;20433;-64
2022/09/14 12:09:49;;;;;;;4.10;2.87;;;;;;;;;;5034401;28;20428;-63
2022/09/14 12:12:35;;;;;;;11.20;3.43;;;;;;;;;;5034619;28;20456;-63
2022/09/14 12:15:04;;;;;;;4.87;2.90;;;;;;;;;;5033717;28;20451;-63
2022/09/14 12:17:36;;;;;;;8.10;3.33;;;;;;;;;;5033594;28;20451;-64
2022/09/14 12:20:36;;;;;;;3.80;2.37;;;;;;;;;;5033638;28;20448;-63
2022/09/14 12:23:11;;;;;;;5.00;3.50;;;;;;;;;;4972954;28;20520;-63
2022/09/14 12:25:39;;;;;;;4.77;3.13;;;;;;;;;;4972875;28;20512;-64
2022/09/14 12:28:21;;;;;;;4.97;2.80;;;;;;;;;;5003845;28;20454;-64
2022/09/14 12:31:09;;;;;;;3.30;2.30;;;;;;;;;;5032936;28;20936;-64
2022/09/14 12:33:57;;;;;;;3.37;2.43;;;;;;;;;;5033754;28;20487;-64
2022/09/14 12:36:42;;;;;;;2.80;2.60;;;;;;;;;;5033905;28;20509;-63
2022/09/14 12:39:22;;;;;;;7.73;2.50;;;;;;;;;;5033564;28;20514;-63
2022/09/14 12:42:10;;;;;;;2.67;2.47;;;;;;;;;;5034012;28;20491;-63
2022/09/14 12:44:39;;;;;;;4.83;2.53;;;;;;;;;;5033704;28;20516;-63
2022/09/14 12:47:24;;;;;;;11.93;3.27;;;;;;;;;;5033267;28;20972;-64
2022/09/14 12:49:52;;;;;;;4.97;2.40;;;;;;;;;;5033635;28;20443;-63
2022/09/14 12:52:31;;;;;;;6.17;3.70;;;;;;;;;;5033186;28;20938;-63
2022/09/14 12:55:06;;;;;;;5.53;3.03;;;;;;;;;;5033550;28;20784;-63
2022/09/14 12:57:39;;;;;;;4.80;1.97;;;;;;;;;;5033794;28;20439;-63
2022/09/14 13:00:12;;;;;;;4.07;2.20;;;;;;;;;;5033243;28;20937;-64
2022/09/14 13:02:49;;;;;;;3.83;2.00;;;;;;;;;;5033114;28;20941;-63
2022/09/14 13:05:17;;;;;;;3.57;2.43;;;;;;;;;;5033345;28;20443;-63
2022/09/14 13:07:45;;;;;;;3.40;2.57;;;;;;;;;;5033023;28;20924;-63
2022/09/14 13:10:19;;;;;;;5.20;3.53;;;;;;;;;;5033282;28;20482;-63
2022/09/14 13:12:47;;;;;;;5.83;3.83;;;;;;;;;;5033281;28;20443;-63
2022/09/14 13:15:18;;;;;;;6.47;3.33;;;;;;;;;;5032887;28;20443;-63
2022/09/14 13:17:56;;;;;;;4.47;3.60;;;;;;;;;;5033569;28;20433;-64
2022/09/14 13:20:24;;;;;;;6.53;2.77;;;;;;;;;;5033171;28;20436;-63
2022/09/14 13:22:51;;;;;;;4.03;2.97;;;;;;;;;;5033517;28;20454;-63
2022/09/14 13:25:27;;;;;;;8.33;3.20;;;;;;;;;;5032854;28;20940;-64
2022/09/14 13:27:55;;;;;;;3.70;2.83;;;;;;;;;;5036512;28;20444;-63
2022/09/14 13:30:23;;;;;;;6.70;3.30;;;;;;;;;;5036810;28;20445;-64
2022/09/14 13:32:51;;;;;;;5.17;3.40;;;;;;;;;;5037432;28;20487;-63
2022/09/14 13:35:20;;;;;;;5.00;3.40;;;;;;;;;;5036977;28;20801;-63
2022/09/14 13:37:48;;;;;;;5.20;3.43;;;;;;;;;;5036680;28;20450;-63
2022/09/14 13:40:15;;;;;;;3.80;3.10;;;;;;;;;;5036852;28;20443;-63
2022/09/14 13:42:44;;;;;;;4.03;3.63;;;;;;;;;;5037378;28;20449;-63
2022/09/14 13:45:13;;;;;;;7.33;3.80;;;;;;;;;;5036407;28;21012;-63
2022/09/14 13:47:40;;;;;;;4.10;3.30;;;;;;;;;;5036813;28;20544;-63
2022/09/14 13:50:08;;;;;;;8.70;3.57;;;;;;;;;;5036338;28;20947;-63
2022/09/14 13:52:37;;;;;;;6.60;3.87;;;;;;;;;;5036564;28;20454;-63
2022/09/14 13:55:16;;;;;;;6.97;2.97;;;;;;;;;;5035551;28;20515;-64
2022/09/14 13:57:58;;;;;;;3.13;2.90;;;;;;;;;;5036681;28;20436;-63
2022/09/14 14:00:27;;;;;;;6.00;3.37;;;;;;;;;;5035472;28;20452;-63
2022/09/14 14:03:01;;;;;;;7.07;3.80;;;;;;;;;;5036113;28;20446;-63
2022/09/14 14:05:29;;;;;;;4.70;3.37;;;;;;;;;;5036068;28;20474;-62
2022/09/14 14:07:57;;;;;;;4.83;3.20;;;;;;;;;;5036342;28;20800;-62
2022/09/14 14:10:27;;;;;;;6.13;3.60;;;;;;;;;;5036191;28;20545;-62
2022/09/14 14:12:54;;;;;;;8.53;4.10;;;;;;;;;;5036216;28;20449;-62
2022/09/14 14:15:37;;;;;;;10.10;4.50;;;;;;;;;;5036485;28;20452;-62
2022/09/14 14:18:19;;;;;;;4.20;3.00;;;;;;;;;;5036413;28;20444;-63
2022/09/14 14:20:46;;;;;;;5.87;3.40;;;;;;;;;;5035170;28;20444;-63
2022/09/14 14:23:19;;;;;;;7.87;3.67;;;;;;;;;;5035826;28;20446;-64
2022/09/14 14:25:48;;;;;;;4.17;2.80;;;;;;;;;;5035882;28;20938;-63
2022/09/14 14:28:16;;;;;;;6.90;3.97;;;;;;;;;;5036230;28;20444;-63
2022/09/14 14:30:45;;;;;;;4.03;2.97;;;;;;;;;;5035592;28;20447;-64
2022/09/14 14:33:13;;;;;;;6.53;3.33;;;;;;;;;;5035945;28;20434;-63
2022/09/14 14:35:40;;;;;;;3.97;3.17;;;;;;;;;;5035844;28;20444;-63
2022/09/14 14:38:08;;;;;;;8.03;2.77;;;;;;;;;;5035383;28;20932;-63
2022/09/14 14:40:35;;;;;;;3.80;3.23;;;;;;;;;;5035754;28;20446;-64
2022/09/14 14:43:03;;;;;;;6.80;3.10;;;;;;;;;;5035666;28;20450;-64
2022/09/14 14:45:31;;;;;;;8.50;2.80;;;;;;;;;;5035721;28;20910;-63
2022/09/14 14:48:00;;;;;;;3.23;2.93;;;;;;;;;;5035295;28;20453;-64
2022/09/14 14:50:28;;;;;;;3.93;2.30;;;;;;;;;;5035600;28;20445;-63
2022/09/14 14:52:55;;;;;;;6.77;2.90;;;;;;;;;;5035347;28;20453;-63
2022/09/14 14:55:24;;;;;;;4.83;2.53;;;;;;;;;;5035386;28;20483;-63
2022/09/14 14:57:53;;;;;;;10.10;2.67;;;;;;;;;;5035379;28;20494;-63